Time;durP1;ratioP1;P1;durP2;ratioP2;P2;SDS_P1;SDS_P2;PMS_P1;PMS_P2;Temp;Humidity;BMP_temperature;BMP_pressure;BME280_temperature;BME280_humidity;BME280_pressure;Samples;Min_cycle;Max_cycle;Signal;HPM_P1;HPM_P2
2023/08/23 00:00:50;;;;;;;15.15;9.15;;;16.80;99.90;;;;;;5120921;28;20036;-59
2023/08/23 00:03:15;;;;;;;10.95;8.02;;;16.80;99.90;;;;;;5118229;28;20057;-59
2023/08/23 00:05:43;;;;;;;12.85;8.70;;;16.80;99.90;;;;;;5121200;28;20055;-59
2023/08/23 00:08:08;;;;;;;15.27;9.20;;;16.90;99.90;;;;;;5118552;28;20050;-59
2023/08/23 00:10:34;;;;;;;12.65;9.10;;;16.90;99.90;;;;;;5121009;28;20039;-59
2023/08/23 00:13:00;;;;;;;14.45;9.20;;;16.80;99.90;;;;;;5120843;28;20119;-59
2023/08/23 00:15:25;;;;;;;12.10;8.73;;;16.80;99.90;;;;;;5119947;28;20052;-59
2023/08/23 00:17:51;;;;;;;15.20;9.10;;;16.80;99.90;;;;;;5120659;28;20035;-59
2023/08/23 00:20:17;;;;;;;11.32;8.68;;;16.80;99.90;;;;;;5118990;28;20079;-59
2023/08/23 00:22:42;;;;;;;12.05;8.38;;;16.90;99.90;;;;;;5120616;28;20036;-59
2023/08/23 00:25:08;;;;;;;14.20;8.65;;;16.80;99.90;;;;;;5119532;28;20046;-59
2023/08/23 00:27:34;;;;;;;13.95;8.88;;;16.80;99.90;;;;;;5115183;28;20040;-59
2023/08/23 00:29:59;;;;;;;12.18;8.48;;;16.80;99.90;;;;;;5099515;28;20036;-58
2023/08/23 00:32:25;;;;;;;14.45;8.68;;;16.70;99.90;;;;;;5099893;28;20044;-59
2023/08/23 00:34:51;;;;;;;12.05;8.30;;;16.70;99.90;;;;;;5098268;28;20044;-60
2023/08/23 00:37:16;;;;;;;12.10;8.75;;;16.80;99.90;;;;;;5098955;28;20054;-60
2023/08/23 00:39:44;;;;;;;12.38;8.32;;;16.70;99.90;;;;;;5100019;28;20071;-59
2023/08/23 00:42:10;;;;;;;14.38;7.82;;;16.80;99.90;;;;;;5098967;28;20525;-59
2023/08/23 00:44:35;;;;;;;13.32;8.38;;;16.70;99.90;;;;;;5100151;28;20051;-60
2023/08/23 00:47:01;;;;;;;12.05;7.95;;;16.60;99.90;;;;;;5099351;28;20031;-59
2023/08/23 00:49:33;;;;;;;12.18;8.45;;;16.50;99.90;;;;;;5099492;28;20181;-59
2023/08/23 00:52:00;;;;;;;;;;;16.70;99.90;;;;;;5099008;28;20079;-59
2023/08/23 00:54:26;;;;;;;11.60;7.55;;;16.60;99.90;;;;;;5098914;28;20276;-59
2023/08/23 00:56:52;;;;;;;10.90;8.25;;;16.50;99.90;;;;;;5099416;28;20129;-59
2023/08/23 00:59:18;;;;;;;11.18;7.57;;;16.50;99.90;;;;;;5098598;28;20115;-59
2023/08/23 01:01:44;;;;;;;10.68;7.38;;;16.40;99.90;;;;;;5099862;28;20048;-58
2023/08/23 01:04:09;;;;;;;10.43;7.45;;;16.40;99.90;;;;;;5097494;28;20418;-59
2023/08/23 01:06:46;;;;;;;10.73;7.60;;;16.30;99.90;;;;;;5099268;28;20139;-59
2023/08/23 01:09:33;;;;;;;10.85;7.65;;;16.40;99.90;;;;;;5099511;28;20068;-59
2023/08/23 01:12:39;;;;;;;10.70;7.32;;;16.40;99.90;;;;;;5098428;28;20049;-58
2023/08/23 01:15:08;;;;;;;11.40;7.68;;;16.40;99.90;;;;;;5099476;28;20039;-59
2023/08/23 01:17:41;;;;;;;11.10;7.95;;;16.30;99.90;;;;;;5099291;28;20044;-59
2023/08/23 01:20:10;;;;;;;10.90;8.10;;;16.30;99.90;;;;;;5097887;28;20156;-59
2023/08/23 01:22:44;;;;;;;13.55;8.82;;;16.30;99.90;;;;;;5098857;28;20523;-59
2023/08/23 01:25:10;;;;;;;13.15;8.43;;;16.30;99.90;;;;;;5098386;28;20048;-56
2023/08/23 01:27:35;;;;;;;12.52;8.13;;;16.30;99.90;;;;;;5099336;28;20139;-59
2023/08/23 01:30:01;;;;;;;12.52;8.77;;;16.30;99.90;;;;;;5099171;28;20067;-58
2023/08/23 01:32:47;;;;;;;12.38;7.97;;;16.20;99.90;;;;;;5098432;28;20052;-58
2023/08/23 01:35:18;;;;;;;12.27;7.90;;;16.20;99.90;;;;;;5099496;28;20107;-59
2023/08/23 01:37:48;;;;;;;12.43;8.85;;;16.30;99.90;;;;;;5097865;28;20506;-59
2023/08/23 01:40:14;;;;;;;11.98;7.97;;;16.30;99.90;;;;;;5099525;28;20482;-59
2023/08/23 01:42:41;;;;;;;12.32;8.45;;;16.20;99.90;;;;;;5098480;28;20032;-58
2023/08/23 01:45:07;;;;;;;13.52;8.43;;;16.30;99.90;;;;;;5098975;28;20108;-60
2023/08/23 01:47:33;;;;;;;13.13;8.80;;;16.30;99.90;;;;;;5099100;28;20376;-59
2023/08/23 01:49:59;;;;;;;13.90;9.05;;;16.20;99.90;;;;;;5097953;28;20036;-59
2023/08/23 01:52:25;;;;;;;11.63;7.88;;;16.20;99.90;;;;;;5097919;28;20067;-59
2023/08/23 01:54:50;;;;;;;13.55;8.65;;;16.20;99.90;;;;;;5098083;28;20044;-59
2023/08/23 01:57:16;;;;;;;11.85;8.98;;;16.20;99.90;;;;;;5119736;28;20044;-59
2023/08/23 01:59:44;;;;;;;14.65;9.18;;;16.10;99.90;;;;;;5117220;28;20411;-59
2023/08/23 02:02:09;;;;;;;13.45;8.68;;;16.10;99.90;;;;;;5119307;28;20042;-59
2023/08/23 02:04:35;;;;;;;13.07;8.80;;;16.00;99.90;;;;;;5119276;28;20063;-62
2023/08/23 02:07:01;;;;;;;12.77;8.63;;;16.10;99.90;;;;;;5118550;28;20048;-59
2023/08/23 02:09:26;;;;;;;14.23;9.35;;;16.10;99.90;;;;;;5119502;28;20047;-59
2023/08/23 02:11:52;;;;;;;11.23;7.65;;;16.00;99.90;;;;;;5118007;28;20511;-59
2023/08/23 02:14:18;;;;;;;14.02;9.00;;;16.00;99.90;;;;;;5119574;28;20047;-61
2023/08/23 02:16:43;;;;;;;13.38;8.50;;;16.10;99.90;;;;;;5118256;28;20040;-60
2023/08/23 02:19:09;;;;;;;15.52;9.05;;;16.00;99.90;;;;;;5103519;28;20043;-59
2023/08/23 02:21:36;;;;;;;14.25;9.10;;;16.00;99.90;;;;;;5098723;28;20044;-59
2023/08/23 02:24:01;;;;;;;13.25;8.48;;;16.00;99.90;;;;;;5097951;28;20048;-60
2023/08/23 02:26:27;;;;;;;13.00;8.05;;;16.00;99.90;;;;;;5098922;28;20040;-59
2023/08/23 02:28:53;;;;;;;11.27;8.00;;;16.00;99.90;;;;;;5097590;28;20100;-60
2023/08/23 02:31:19;;;;;;;13.70;9.02;;;16.00;99.90;;;;;;5098824;28;20072;-60
2023/08/23 02:33:44;;;;;;;12.30;8.30;;;16.00;99.90;;;;;;5097689;28;20036;-60
2023/08/23 02:36:10;;;;;;;13.48;8.50;;;16.00;99.90;;;;;;5099794;28;20052;-59
2023/08/23 02:38:35;;;;;;;13.02;8.50;;;15.90;99.90;;;;;;5101946;28;20040;-59
2023/08/23 02:41:01;;;;;;;13.30;8.73;;;16.00;99.90;;;;;;5101523;28;20638;-59
2023/08/23 02:43:27;;;;;;;13.55;7.75;;;16.00;99.90;;;;;;5100914;28;20040;-58
2023/08/23 02:45:52;;;;;;;12.38;8.23;;;16.00;99.90;;;;;;5101280;28;20040;-59
2023/08/23 02:48:18;;;;;;;12.10;8.30;;;15.90;99.90;;;;;;5102012;28;20044;-59
2023/08/23 02:50:44;;;;;;;13.05;8.05;;;16.00;99.90;;;;;;5101034;28;20119;-59
2023/08/23 02:53:10;;;;;;;12.27;8.73;;;16.00;99.90;;;;;;5102028;28;20040;-59
2023/08/23 02:55:37;;;;;;;13.60;8.52;;;16.10;99.90;;;;;;5108140;28;20031;-59
2023/08/23 02:58:03;;;;;;;14.93;8.90;;;16.10;99.90;;;;;;5121932;28;20035;-59
2023/08/23 03:00:29;;;;;;;16.33;8.77;;;16.10;99.90;;;;;;5122213;28;20048;-58
2023/08/23 03:02:55;;;;;;;14.18;8.98;;;16.10;99.90;;;;;;5121152;28;20042;-59
2023/08/23 03:05:21;;;;;;;12.88;9.35;;;16.20;99.90;;;;;;5122242;28;20052;-58
2023/08/23 03:07:47;;;;;;;14.15;8.82;;;16.20;99.90;;;;;;5120963;28;20185;-59
2023/08/23 03:10:13;;;;;;;13.18;9.07;;;16.20;99.90;;;;;;5122335;28;20044;-59
2023/08/23 03:12:39;;;;;;;13.80;8.77;;;16.20;99.90;;;;;;5120207;28;20380;-58
2023/08/23 03:15:05;;;;;;;16.90;9.48;;;16.30;99.90;;;;;;5121827;28;20381;-59
2023/08/23 03:17:31;;;;;;;16.30;10.57;;;16.20;99.90;;;;;;5121926;28;20082;-60
2023/08/23 03:19:57;;;;;;;14.88;10.00;;;16.20;99.90;;;;;;5120771;28;20047;-59
2023/08/23 03:22:24;;;;;;;13.48;9.27;;;16.30;99.90;;;;;;5122025;28;20130;-58
2023/08/23 03:24:50;;;;;;;13.05;9.40;;;16.20;99.90;;;;;;5120673;28;20115;-59
2023/08/23 03:27:15;;;;;;;16.52;9.55;;;16.30;99.90;;;;;;5121932;28;20043;-60
2023/08/23 03:29:50;;;;;;;15.13;9.25;;;16.20;99.90;;;;;;5121122;28;20039;-58
2023/08/23 03:32:16;;;;;;;14.43;9.18;;;16.30;99.90;;;;;;5121517;28;20046;-59
2023/08/23 03:34:42;;;;;;;14.20;8.65;;;16.30;99.90;;;;;;5121587;28;20088;-58
2023/08/23 03:37:07;;;;;;;12.73;9.05;;;16.20;99.90;;;;;;5120203;28;20141;-59
2023/08/23 03:39:33;;;;;;;12.57;8.68;;;16.20;99.90;;;;;;5120939;28;20047;-59
2023/08/23 03:41:59;;;;;;;14.07;9.05;;;16.30;99.90;;;;;;5120290;28;20043;-59
2023/08/23 03:44:24;;;;;;;11.70;8.07;;;16.20;99.90;;;;;;5121324;28;20059;-59
2023/08/23 03:46:50;;;;;;;12.88;8.48;;;16.20;99.90;;;;;;5118975;28;20035;-59
2023/08/23 03:49:16;;;;;;;15.45;9.00;;;16.30;99.90;;;;;;5121039;28;20059;-59
2023/08/23 03:51:42;;;;;;;12.07;8.40;;;16.20;99.90;;;;;;5121178;28;20040;-59
2023/08/23 03:54:07;;;;;;;12.93;8.20;;;16.20;99.90;;;;;;5120146;28;20040;-60
2023/08/23 03:56:33;;;;;;;13.32;8.73;;;16.20;99.90;;;;;;5106873;28;20086;-59
2023/08/23 03:58:58;;;;;;;12.18;7.88;;;16.20;99.90;;;;;;5099687;28;20044;-59
2023/08/23 04:01:24;;;;;;;11.63;8.38;;;16.10;99.90;;;;;;5100843;28;20048;-59
2023/08/23 04:03:50;;;;;;;11.93;8.00;;;16.00;99.90;;;;;;5099574;28;20062;-59
2023/08/23 04:06:16;;;;;;;12.25;8.80;;;16.00;99.90;;;;;;5100340;28;20641;-58
2023/08/23 04:08:42;;;;;;;13.80;9.32;;;15.90;99.90;;;;;;5098746;28;20083;-58
2023/08/23 04:11:07;;;;;;;13.02;9.15;;;16.00;99.90;;;;;;5099655;28;20048;-59
2023/08/23 04:13:33;;;;;;;12.60;8.77;;;16.00;99.90;;;;;;5099038;28;20079;-58
2023/08/23 04:15:59;;;;;;;13.57;9.38;;;16.00;99.90;;;;;;5099302;28;20040;-58
2023/08/23 04:18:25;;;;;;;15.35;9.38;;;16.00;99.90;;;;;;5098859;28;20081;-58
2023/08/23 04:21:00;;;;;;;14.00;9.18;;;16.00;99.90;;;;;;5099600;28;20513;-59
2023/08/23 04:23:26;;;;;;;13.85;9.95;;;16.00;99.90;;;;;;5100407;28;20059;-58
2023/08/23 04:25:52;;;;;;;14.85;9.63;;;16.00;99.90;;;;;;5100198;28;20043;-58
2023/08/23 04:28:17;;;;;;;12.68;9.18;;;15.90;99.90;;;;;;5099372;28;20044;-59
2023/08/23 04:30:44;;;;;;;14.02;9.43;;;16.00;99.90;;;;;;5100214;28;20040;-58
2023/08/23 04:33:10;;;;;;;13.25;9.13;;;15.90;99.90;;;;;;5098889;28;20090;-58
2023/08/23 04:35:36;;;;;;;13.15;9.13;;;16.00;99.90;;;;;;5098758;28;20036;-59
2023/08/23 04:38:03;;;;;;;13.93;9.88;;;16.00;99.90;;;;;;5099039;28;20047;-58
2023/08/23 04:40:29;;;;;;;16.05;10.32;;;15.90;99.90;;;;;;5100002;28;20044;-59
2023/08/23 04:42:54;;;;;;;13.60;9.63;;;15.90;99.90;;;;;;5099593;28;20055;-58
2023/08/23 04:45:20;;;;;;;13.57;9.80;;;15.90;99.90;;;;;;5099287;28;20044;-59
2023/08/23 04:47:46;;;;;;;17.17;10.27;;;15.90;99.90;;;;;;5100033;28;20083;-58
2023/08/23 04:50:12;;;;;;;16.05;10.05;;;15.80;99.90;;;;;;5098432;28;20036;-59
2023/08/23 04:52:39;;;;;;;15.57;9.77;;;15.80;99.90;;;;;;5099816;28;20044;-58
2023/08/23 04:55:05;;;;;;;15.68;10.05;;;15.90;99.90;;;;;;5100996;28;20040;-58
2023/08/23 04:57:31;;;;;;;14.52;9.65;;;16.00;99.90;;;;;;5119740;28;20040;-59
2023/08/23 04:59:57;;;;;;;14.68;9.77;;;16.00;99.90;;;;;;5119301;28;20097;-58
2023/08/23 05:02:22;;;;;;;16.63;10.82;;;16.00;99.90;;;;;;5119575;28;20100;-59
2023/08/23 05:04:48;;;;;;;18.50;11.65;;;15.90;99.90;;;;;;5118266;28;20068;-59
2023/08/23 05:07:14;;;;;;;16.08;11.13;;;15.80;99.90;;;;;;5118860;28;20571;-59
2023/08/23 05:09:39;;;;;;;16.23;11.75;;;15.90;99.90;;;;;;5119834;28;20040;-58
2023/08/23 05:12:05;;;;;;;18.65;10.80;;;16.00;99.90;;;;;;5118572;28;20062;-59
2023/08/23 05:14:31;;;;;;;18.30;11.45;;;15.90;99.90;;;;;;5119718;28;20132;-58
2023/08/23 05:16:57;;;;;;;17.52;12.57;;;15.90;99.90;;;;;;5119254;28;20040;-58
2023/08/23 05:19:22;;;;;;;20.25;12.60;;;15.90;99.90;;;;;;5118734;28;20072;-56
2023/08/23 05:21:49;;;;;;;20.65;13.63;;;15.90;99.90;;;;;;5118423;28;20051;-59
2023/08/23 05:24:15;;;;;;;19.00;13.00;;;15.90;99.90;;;;;;5118767;28;20061;-59
2023/08/23 05:26:40;;;;;;;22.63;14.68;;;16.00;99.90;;;;;;5119924;28;20044;-58
2023/08/23 05:29:06;;;;;;;20.95;14.55;;;15.80;99.90;;;;;;5118617;28;20142;-58
2023/08/23 05:31:32;;;;;;;22.08;14.02;;;15.90;99.90;;;;;;5120091;28;20118;-59
2023/08/23 05:33:57;;;;;;;21.58;13.70;;;15.90;99.90;;;;;;5118906;28;20043;-59
2023/08/23 05:36:23;;;;;;;21.85;14.13;;;15.90;99.90;;;;;;5119587;28;20087;-59
2023/08/23 05:38:50;;;;;;;22.17;14.30;;;16.00;99.90;;;;;;5119619;28;20039;-58
2023/08/23 05:41:16;;;;;;;20.83;15.00;;;16.00;99.90;;;;;;5117248;28;20569;-59
2023/08/23 05:43:41;;;;;;;22.50;13.93;;;16.10;99.90;;;;;;5119804;28;20449;-59
2023/08/23 05:46:07;;;;;;;21.00;14.00;;;16.00;99.90;;;;;;5116207;28;20054;-59
2023/08/23 05:48:34;;;;;;;21.15;14.30;;;16.00;99.90;;;;;;5115762;28;20032;-60
2023/08/23 05:51:04;;;;;;;21.77;14.13;;;15.90;99.90;;;;;;5114833;28;20043;-61
2023/08/23 05:53:30;;;;;;;21.10;14.57;;;15.90;99.90;;;;;;5115568;28;20043;-59
2023/08/23 05:55:56;;;;;;;21.33;14.02;;;15.90;99.90;;;;;;5105987;28;20095;-58
2023/08/23 05:58:21;;;;;;;22.27;14.32;;;16.10;99.90;;;;;;5092229;28;20075;-58
2023/08/23 06:00:48;;;;;;;21.67;14.38;;;16.10;99.90;;;;;;5095317;28;20040;-58
2023/08/23 06:03:14;;;;;;;22.45;14.98;;;16.20;99.90;;;;;;5093399;28;20410;-58
2023/08/23 06:05:42;;;;;;;21.27;14.30;;;16.20;99.90;;;;;;5103074;28;20402;-58
2023/08/23 06:08:08;;;;;;;21.45;13.80;;;16.10;99.90;;;;;;5094356;28;20040;-58
2023/08/23 06:10:34;;;;;;;21.38;13.93;;;16.10;99.90;;;;;;5097728;28;20067;-58
2023/08/23 06:12:59;;;;;;;20.42;13.38;;;16.20;99.90;;;;;;5107982;28;20443;-59
2023/08/23 06:15:25;;;;;;;21.40;14.38;;;16.20;99.90;;;;;;5106190;28;20495;-59
2023/08/23 06:17:53;;;;;;;23.23;14.45;;;16.30;99.90;;;;;;5108411;28;20062;-61
2023/08/23 06:20:19;;;;;;;20.02;14.18;;;16.40;99.90;;;;;;5104484;28;20043;-60
2023/08/23 06:22:45;;;;;;;20.33;14.43;;;16.50;99.90;;;;;;5108036;28;20050;-60
2023/08/23 06:25:10;;;;;;;21.35;14.32;;;16.70;99.90;;;;;;5102923;28;20048;-61
2023/08/23 06:27:36;;;;;;;21.15;14.98;;;16.70;99.90;;;;;;5099618;28;20040;-61
2023/08/23 06:30:03;;;;;;;21.95;15.05;;;16.80;99.90;;;;;;5098312;28;20040;-60
2023/08/23 06:32:29;;;;;;;20.38;14.27;;;16.80;99.90;;;;;;5097385;28;20036;-61
2023/08/23 06:34:55;;;;;;;20.58;14.45;;;17.00;99.90;;;;;;5096415;28;20051;-61
2023/08/23 06:37:23;;;;;;;22.75;15.55;;;17.00;99.90;;;;;;5097021;28;20113;-59
2023/08/23 06:39:49;;;;;;;21.05;14.32;;;17.10;99.90;;;;;;5098442;28;20051;-58
2023/08/23 06:42:17;;;;;;;21.30;15.32;;;17.10;99.90;;;;;;5097192;28;20071;-59
2023/08/23 06:44:43;;;;;;;20.60;14.40;;;17.10;99.90;;;;;;5098590;28;20059;-61
2023/08/23 06:47:09;;;;;;;21.15;15.65;;;17.40;99.90;;;;;;5097691;28;20100;-59
2023/08/23 06:49:35;;;;;;;22.42;15.52;;;17.40;99.90;;;;;;5097314;28;20066;-58
2023/08/23 06:52:01;;;;;;;21.40;16.13;;;17.50;99.90;;;;;;5098261;28;20432;-58
2023/08/23 06:54:27;;;;;;;23.23;15.55;;;17.50;99.90;;;;;;5097000;28;20074;-58
2023/08/23 06:56:52;;;;;;;22.05;16.70;;;17.50;99.90;;;;;;5115663;28;20296;-58
2023/08/23 06:59:18;;;;;;;22.77;15.48;;;17.80;99.90;;;;;;5105966;28;20075;-57
2023/08/23 07:01:44;;;;;;;22.42;15.73;;;17.90;99.90;;;;;;5098270;28;20118;-58
2023/08/23 07:04:10;;;;;;;21.50;15.70;;;17.90;99.90;;;;;;5097310;28;20052;-57
2023/08/23 07:06:36;;;;;;;22.75;16.45;;;17.80;99.90;;;;;;5096729;28;20056;-60
2023/08/23 07:09:01;;;;;;;23.60;16.20;;;17.90;99.90;;;;;;5098245;28;20113;-58
2023/08/23 07:11:30;;;;;;;23.50;16.25;;;18.00;99.90;;;;;;5095910;28;20086;-58
2023/08/23 07:13:56;;;;;;;21.15;16.23;;;18.00;99.90;;;;;;5096310;28;20052;-58
2023/08/23 07:16:21;;;;;;;21.48;16.42;;;18.20;99.90;;;;;;5096585;28;20131;-58
2023/08/23 07:18:47;;;;;;;23.33;16.38;;;18.20;99.90;;;;;;5097767;28;20040;-59
2023/08/23 07:21:13;;;;;;;22.10;17.02;;;18.50;99.90;;;;;;5096395;28;20133;-58
2023/08/23 07:23:38;;;;;;;20.67;16.30;;;18.40;99.90;;;;;;5095529;28;20441;-59
2023/08/23 07:26:04;;;;;;;22.65;16.27;;;18.40;99.90;;;;;;5097585;28;20075;-58
2023/08/23 07:28:30;;;;;;;20.63;16.73;;;18.30;99.90;;;;;;5096361;28;20040;-59
2023/08/23 07:30:59;;;;;;;21.33;16.17;;;18.40;99.90;;;;;;5097799;28;20044;-58
2023/08/23 07:33:26;;;;;;;24.73;16.85;;;18.40;99.90;;;;;;5098844;28;20112;-58
2023/08/23 07:36:01;;;;;;;21.27;16.70;;;18.60;99.90;;;;;;5117953;28;20035;-59
2023/08/23 07:38:28;;;;;;;19.83;16.50;;;18.60;99.90;;;;;;5115797;28;20051;-58
2023/08/23 07:41:01;;;;;;;22.33;16.20;;;18.70;99.90;;;;;;5117019;28;20118;-59
2023/08/23 07:43:30;;;;;;;20.92;17.15;;;18.60;99.90;;;;;;5117693;28;20051;-59
2023/08/23 07:46:00;;;;;;;21.70;16.50;;;18.70;99.90;;;;;;5116377;27;20384;-59
2023/08/23 07:48:26;;;;;;;20.35;15.48;;;19.00;99.90;;;;;;5098964;28;20068;-59
2023/08/23 07:50:55;;;;;;;20.20;15.30;;;19.20;99.90;;;;;;5116449;28;20078;-59
2023/08/23 07:53:22;;;;;;;24.10;16.83;;;19.20;99.90;;;;;;5117200;28;20051;-58
2023/08/23 07:55:48;;;;;;;25.05;16.23;;;19.40;99.90;;;;;;5108772;28;20505;-59
2023/08/23 07:58:15;;;;;;;19.50;15.93;;;19.30;99.90;;;;;;5095419;28;20078;-59
2023/08/23 08:00:41;;;;;;;19.80;15.05;;;19.30;99.90;;;;;;5096730;28;20471;-59
2023/08/23 08:03:08;;;;;;;21.10;15.98;;;19.50;99.90;;;;;;5095436;28;20079;-59
2023/08/23 08:05:34;;;;;;;21.25;15.38;;;19.50;99.90;;;;;;5096834;28;20052;-58
2023/08/23 08:08:00;;;;;;;20.00;14.75;;;19.60;99.90;;;;;;5095338;28;20050;-59
2023/08/23 08:10:26;;;;;;;22.13;16.27;;;19.70;99.90;;;;;;5100485;28;20048;-59
2023/08/23 08:12:52;;;;;;;20.55;15.57;;;19.60;99.90;;;;;;5100135;28;20044;-59
2023/08/23 08:15:18;;;;;;;19.42;15.35;;;19.70;99.90;;;;;;5099320;28;20635;-59
2023/08/23 08:17:44;;;;;;;21.10;16.08;;;19.80;99.90;;;;;;5100302;28;20042;-59
2023/08/23 08:20:10;;;;;;;22.77;16.00;;;19.90;99.90;;;;;;5097618;28;20047;-59
2023/08/23 08:22:37;;;;;;;21.13;15.20;;;20.10;99.90;;;;;;5100337;28;20122;-59
2023/08/23 08:25:04;;;;;;;19.65;14.25;;;20.20;99.90;;;;;;5098995;28;20052;-59
2023/08/23 08:27:30;;;;;;;20.85;14.52;;;20.10;99.90;;;;;;5100106;28;20036;-59
2023/08/23 08:29:56;;;;;;;19.85;15.48;;;20.20;99.90;;;;;;5099819;28;20047;-59
2023/08/23 08:32:21;;;;;;;21.55;15.43;;;20.30;99.90;;;;;;5099216;28;20073;-58
2023/08/23 08:34:47;;;;;;;22.55;15.82;;;20.40;99.90;;;;;;5100327;28;20036;-60
2023/08/23 08:37:14;;;;;;;19.67;15.02;;;20.50;99.90;;;;;;5098890;28;20514;-62
2023/08/23 08:39:39;;;;;;;20.25;15.65;;;20.60;99.90;;;;;;5099711;28;20511;-59
2023/08/23 08:42:06;;;;;;;19.40;15.77;;;20.70;99.90;;;;;;5098916;28;20511;-59
2023/08/23 08:44:31;;;;;;;20.60;16.23;;;20.60;99.90;;;;;;5099886;28;20330;-63
2023/08/23 08:46:57;;;;;;;22.25;16.83;;;20.50;99.90;;;;;;5099599;28;20036;-59
2023/08/23 08:49:23;;;;;;;20.02;16.42;;;20.60;99.90;;;;;;5098875;28;20062;-59
2023/08/23 08:51:50;;;;;;;21.95;15.40;;;20.90;99.90;;;;;;5099569;28;20047;-59
2023/08/23 08:54:17;;;;;;;21.67;17.10;;;21.00;99.90;;;;;;5098115;28;20123;-59
2023/08/23 08:56:47;;;;;;;22.10;15.95;;;21.10;99.90;;;;;;5099569;28;20051;-58
2023/08/23 08:59:16;;;;;;;17.35;14.63;;;21.20;99.90;;;;;;5101054;28;20040;-59
2023/08/23 09:01:44;;;;;;;20.83;15.48;;;20.90;99.90;;;;;;5100040;28;20048;-59
2023/08/23 09:04:11;;;;;;;20.60;16.35;;;21.10;99.90;;;;;;5106542;28;20048;-58
2023/08/23 09:06:37;;;;;;;17.98;14.05;;;21.00;99.90;;;;;;5113743;28;20056;-59
2023/08/23 09:09:04;;;;;;;18.83;15.40;;;21.10;99.90;;;;;;5118900;28;20044;-59
2023/08/23 09:11:33;;;;;;;19.63;14.40;;;21.00;99.90;;;;;;5118329;28;20043;-59
2023/08/23 09:13:59;;;;;;;20.27;14.98;;;21.10;99.90;;;;;;5118220;28;20075;-59
2023/08/23 09:16:27;;;;;;;18.58;13.65;;;21.10;99.90;;;;;;5117431;28;20077;-59
2023/08/23 09:18:56;;;;;;;18.63;13.60;;;21.10;99.90;;;;;;5119375;28;20439;-59
2023/08/23 09:21:24;;;;;;;18.25;14.40;;;21.10;99.90;;;;;;5119619;28;20070;-59
2023/08/23 09:23:50;;;;;;;17.92;12.75;;;20.90;99.90;;;;;;5118703;28;20055;-59
2023/08/23 09:26:16;;;;;;;19.05;12.70;;;20.90;99.90;;;;;;5119556;28;20063;-59
2023/08/23 09:28:42;;;;;;;18.95;13.68;;;21.00;99.90;;;;;;5118192;28;20054;-59
2023/08/23 09:31:11;;;;;;;17.63;13.82;;;21.10;99.90;;;;;;5119527;28;20395;-59
2023/08/23 09:33:38;;;;;;;20.15;14.40;;;21.20;99.90;;;;;;5118452;28;20078;-59
2023/08/23 09:36:03;;;;;;;19.25;12.50;;;21.10;99.90;;;;;;5119554;28;20044;-59
2023/08/23 09:38:29;;;;;;;18.42;12.07;;;21.20;99.90;;;;;;5119233;28;20093;-57
2023/08/23 09:40:57;;;;;;;14.98;11.82;;;21.30;99.90;;;;;;5118491;28;20047;-60
2023/08/23 09:43:24;;;;;;;19.95;11.60;;;21.40;99.90;;;;;;5115249;28;20039;-59
2023/08/23 09:45:50;;;;;;;17.20;11.82;;;21.60;99.90;;;;;;5115780;28;20040;-60
2023/08/23 09:48:17;;;;;;;14.50;9.07;;;21.90;99.90;;;;;;5118375;28;20040;-59
2023/08/23 09:50:45;;;;;;;14.35;9.30;;;21.70;96.50;;;;;;5112142;28;20105;-59
2023/08/23 09:53:21;;;;;;;13.27;8.45;;;21.60;92.70;;;;;;5123341;28;20084;-59
2023/08/23 09:55:48;;;;;;;10.18;7.00;;;21.80;89.40;;;;;;5118453;28;20103;-59
2023/08/23 09:58:14;;;;;;;12.20;7.95;;;22.00;93.90;;;;;;5122087;28;20047;-59
2023/08/23 10:00:40;;;;;;;9.68;6.65;;;22.10;93.50;;;;;;5123116;28;20048;-59
2023/08/23 10:03:07;;;;;;;13.98;8.57;;;22.30;94.00;;;;;;5122021;28;20067;-59
2023/08/23 10:05:35;;;;;;;13.23;8.00;;;22.30;91.10;;;;;;5123180;28;20097;-59
2023/08/23 10:08:02;;;;;;;17.15;8.75;;;22.60;94.50;;;;;;5120974;28;20051;-59
2023/08/23 10:10:30;;;;;;;12.63;7.68;;;22.70;84.30;;;;;;5122652;28;20401;-60
2023/08/23 10:13:00;;;;;;;10.77;6.97;;;22.80;88.90;;;;;;5121476;28;20375;-59
2023/08/23 10:15:31;;;;;;;10.07;6.10;;;22.90;87.20;;;;;;5121888;27;20028;-59
2023/08/23 10:17:59;;;;;;;12.52;6.63;;;22.80;82.00;;;;;;5123175;28;20295;-60
2023/08/23 10:20:25;;;;;;;9.55;5.13;;;22.60;66.90;;;;;;5120031;28;20563;-57
2023/08/23 10:22:56;;;;;;;8.88;3.65;;;22.80;66.30;;;;;;5122993;28;20035;-59
2023/08/23 10:25:22;;;;;;;7.32;3.58;;;22.90;66.10;;;;;;5122390;28;20052;-59
2023/08/23 10:27:51;;;;;;;13.45;6.95;;;23.00;69.80;;;;;;5122395;28;20031;-59
2023/08/23 10:30:28;;;;;;;10.88;7.47;;;23.20;73.70;;;;;;5122978;28;20054;-59
2023/08/23 10:32:55;;;;;;;10.30;6.75;;;23.20;70.90;;;;;;5121528;28;20099;-58
2023/08/23 10:35:33;;;;;;;13.20;9.05;;;23.30;74.90;;;;;;5122322;27;20040;-58
2023/08/23 10:37:59;;;;;;;13.18;8.07;;;23.00;68.00;;;;;;5105054;28;20044;-57
2023/08/23 10:40:29;;;;;;;11.07;6.25;;;23.10;70.50;;;;;;5100490;28;20519;-58
2023/08/23 10:42:55;;;;;;;14.77;6.35;;;23.20;72.50;;;;;;5101120;28;20056;-58
2023/08/23 10:45:21;;;;;;;10.38;6.90;;;23.20;66.80;;;;;;5099664;28;20120;-59
2023/08/23 10:47:50;;;;;;;11.75;6.30;;;23.40;71.90;;;;;;5102064;28;20054;-58
2023/08/23 10:50:17;;;;;;;8.68;4.75;;;23.50;71.30;;;;;;5100523;28;20043;-58
2023/08/23 10:52:43;;;;;;;8.32;4.60;;;23.40;50.00;;;;;;5102037;28;20040;-58
2023/08/23 10:55:09;;;;;;;10.13;5.20;;;23.40;54.70;;;;;;5099318;28;20040;-57
2023/08/23 10:57:35;;;;;;;9.52;5.25;;;23.50;55.90;;;;;;5100913;28;20541;-58
2023/08/23 11:00:02;;;;;;;10.52;5.65;;;23.40;51.40;;;;;;5100061;28;20077;-58
2023/08/23 11:02:30;;;;;;;10.70;5.88;;;23.50;58.20;;;;;;5100302;28;20044;-57
2023/08/23 11:04:56;;;;;;;10.38;6.00;;;23.90;60.10;;;;;;5099807;28;20073;-58
2023/08/23 11:07:28;;;;;;;9.27;5.18;;;23.80;55.00;;;;;;5100340;28;20040;-58
2023/08/23 11:09:54;;;;;;;9.65;3.78;;;23.90;58.00;;;;;;5101584;28;20036;-58
2023/08/23 11:12:20;;;;;;;9.45;4.80;;;23.90;43.90;;;;;;5099303;28;20523;-58
2023/08/23 11:14:46;;;;;;;8.98;4.93;;;23.80;37.00;;;;;;5101252;28;20059;-58
2023/08/23 11:17:12;;;;;;;8.75;4.20;;;23.80;42.40;;;;;;5101164;28;20028;-58
2023/08/23 11:19:38;;;;;;;8.45;4.28;;;23.70;39.80;;;;;;5100039;28;20051;-58
2023/08/23 11:22:06;;;;;;;7.32;3.42;;;23.50;39.40;;;;;;5101236;28;20443;-58
2023/08/23 11:24:32;;;;;;;10.82;4.38;;;23.80;38.40;;;;;;5100136;28;20040;-58
2023/08/23 11:26:58;;;;;;;9.13;3.65;;;23.40;42.40;;;;;;5083082;28;20073;-58
2023/08/23 11:29:23;;;;;;;8.35;3.78;;;23.30;42.90;;;;;;5100493;28;20066;-58
2023/08/23 11:31:54;;;;;;;7.43;3.00;;;23.60;44.70;;;;;;5101011;28;20044;-58
2023/08/23 11:34:20;;;;;;;8.50;2.80;;;23.80;35.20;;;;;;5100769;28;20036;-58
2023/08/23 11:36:46;;;;;;;7.50;2.35;;;24.20;37.50;;;;;;5099847;28;20517;-58
2023/08/23 11:39:13;;;;;;;6.22;2.00;;;24.10;30.60;;;;;;5101070;28;20112;-58
2023/08/23 11:41:40;;;;;;;5.95;2.25;;;24.20;24.90;;;;;;5098299;28;20040;-58
2023/08/23 11:44:09;;;;;;;11.57;3.33;;;24.40;28.80;;;;;;5101225;28;20040;-59
2023/08/23 11:46:39;;;;;;;6.00;2.35;;;24.40;22.20;;;;;;5100200;28;20093;-58
2023/08/23 11:49:06;;;;;;;6.53;2.22;;;24.50;25.90;;;;;;5104889;28;20036;-58
2023/08/23 11:51:44;;;;;;;5.97;1.83;;;24.70;28.50;;;;;;5107977;28;20055;-59
2023/08/23 11:54:11;;;;;;;5.72;1.50;;;24.40;14.70;;;;;;5108398;28;20584;-58
2023/08/23 11:56:44;;;;;;;4.93;1.50;;;24.60;11.90;;;;;;5105160;28;20475;-57
2023/08/23 11:59:12;;;;;;;4.25;1.40;;;24.60;9.60;;;;;;5104295;28;20043;-58
2023/08/23 12:01:38;;;;;;;6.28;1.65;;;24.60;5.80;;;;;;5114425;28;20039;-58
2023/08/23 12:04:07;;;;;;;4.90;1.40;;;24.40;11.90;;;;;;5108642;28;20438;-58
2023/08/23 12:06:33;;;;;;;3.83;1.20;;;24.30;1.00;;;;;;5119315;28;20090;-58
2023/08/23 12:08:58;;;;;;;5.25;1.63;;;24.30;8.60;;;;;;5118846;28;20100;-58
2023/08/23 12:11:25;;;;;;;5.78;1.60;;;24.70;16.60;;;;;;5119427;28;20067;-58
2023/08/23 12:13:51;;;;;;;5.78;1.60;;;24.70;6.70;;;;;;5120672;28;20044;-58
2023/08/23 12:16:17;;;;;;;5.22;1.60;;;24.60;7.80;;;;;;5119297;28;20057;-58
2023/08/23 12:18:46;;;;;;;4.20;1.55;;;25.00;12.10;;;;;;5120106;28;20067;-58
2023/08/23 12:21:12;;;;;;;6.43;1.50;;;25.20;7.80;;;;;;5119847;28;20499;-58
2023/08/23 12:23:37;;;;;;;6.68;1.95;;;24.90;5.10;;;;;;5119715;28;20065;-58
2023/08/23 12:26:03;;;;;;;4.53;1.50;;;25.00;8.30;;;;;;5120478;28;20073;-58
2023/08/23 12:28:29;;;;;;;4.47;1.35;;;25.10;9.10;;;;;;5118898;28;20040;-55
2023/08/23 12:30:54;;;;;;;4.78;1.92;;;25.20;6.30;;;;;;5118990;28;20054;-59
2023/08/23 12:33:20;;;;;;;5.70;2.03;;;25.20;8.10;;;;;;5119114;28;20326;-59